createdAt,value
2018-04-25T00:01:25.287Z,83.55
2018-04-25T00:03:52.672Z,83.70
2018-04-25T00:06:20.104Z,83.35
2018-04-25T00:08:47.487Z,83.69
2018-04-25T00:11:14.953Z,83.67
2018-04-25T00:13:42.401Z,83.66
2018-04-25T00:16:09.808Z,84.09
2018-04-25T00:18:37.203Z,84.55
2018-04-25T00:21:04.600Z,84.58
2018-04-25T00:23:32.796Z,84.49
2018-04-25T00:26:00.175Z,84.55
2018-04-25T00:28:27.570Z,84.46
2018-04-25T00:30:54.968Z,84.60
2018-04-25T00:33:22.354Z,84.60
2018-04-25T00:35:49.753Z,84.67
2018-04-25T00:38:17.180Z,84.99
2018-04-25T00:40:44.561Z,84.78
2018-04-25T00:43:11.942Z,84.75
2018-04-25T00:45:39.442Z,84.57
2018-04-25T00:48:06.817Z,84.96
2018-04-25T00:50:34.222Z,84.39
2018-04-25T00:53:01.614Z,84.10
2018-04-25T00:55:29.008Z,84.05
2018-04-25T00:57:56.800Z,84.58
2018-04-25T01:00:24.203Z,84.92
2018-04-25T01:02:51.675Z,84.45
2018-04-25T01:05:19.082Z,84.66
2018-04-25T01:07:46.472Z,84.61
2018-04-25T01:10:13.864Z,84.42
2018-04-25T01:12:41.395Z,84.32
2018-04-25T01:15:08.813Z,84.44
2018-04-25T01:17:36.235Z,85.33
2018-04-25T01:20:03.639Z,85.50
2018-04-25T01:22:31.688Z,85.35
2018-04-25T01:25:01.853Z,84.90
2018-04-25T01:27:31.773Z,84.43
2018-04-25T01:29:59.172Z,84.70
2018-04-25T01:32:26.817Z,85.22
2018-04-25T01:34:58.175Z,85.55
2018-04-25T01:37:34.938Z,85.75
2018-04-25T01:40:04.060Z,85.30
2018-04-25T01:42:37.768Z,83.75
2018-04-25T01:45:11.756Z,84.55
2018-04-25T01:47:39.156Z,83.99
2018-04-25T01:50:12.332Z,83.57
2018-04-25T01:52:51.767Z,83.89
2018-04-25T01:55:30.919Z,84.81
2018-04-25T01:58:10.191Z,85.12
2018-04-25T02:00:49.400Z,85.09
2018-04-25T02:03:17.575Z,83.67
2018-04-25T02:05:44.944Z,83.30
2018-04-25T02:08:12.333Z,83.06
2018-04-25T02:10:39.710Z,82.67
2018-04-25T02:13:07.135Z,82.53
2018-04-25T02:15:34.536Z,82.46
2018-04-25T02:18:01.925Z,81.67
2018-04-25T02:20:29.408Z,81.55
2018-04-25T02:22:56.985Z,80.83
2018-04-25T02:25:24.368Z,80.04
2018-04-25T02:27:51.764Z,79.98
2018-04-25T02:30:19.342Z,80.63
2018-04-25T02:32:46.729Z,79.67
2018-04-25T02:35:14.112Z,80.17
2018-04-25T02:37:41.792Z,80.44
2018-04-25T02:40:09.177Z,79.90
2018-04-25T02:42:37.426Z,80.03
2018-04-25T02:45:04.817Z,79.14
2018-04-25T02:47:32.213Z,79.09
2018-04-25T02:49:59.599Z,79.38
2018-04-25T02:52:26.985Z,79.13
2018-04-25T02:54:54.422Z,78.96
2018-04-25T02:57:21.831Z,79.49
2018-04-25T02:59:49.225Z,79.13
2018-04-25T03:02:16.608Z,79.11
2018-04-25T03:04:44.221Z,78.94
2018-04-25T03:07:11.607Z,78.76
2018-04-25T03:09:39.408Z,79.14
2018-04-25T03:12:06.805Z,79.59
2018-04-25T03:14:34.914Z,80.16
2018-04-25T03:17:02.301Z,79.95
2018-04-25T03:19:29.707Z,79.46
2018-04-25T03:21:57.200Z,80.22
2018-04-25T03:24:24.600Z,81.01
2018-04-25T03:26:51.983Z,81.53
2018-04-25T03:29:19.456Z,81.43
2018-04-25T03:31:46.848Z,81.56
2018-04-25T03:34:14.820Z,81.10
2018-04-25T03:36:42.206Z,80.76
2018-04-25T03:39:09.597Z,81.22
2018-04-25T03:41:36.983Z,81.35
2018-04-25T03:44:04.388Z,81.12
2018-04-25T03:46:31.904Z,80.71
2018-04-25T03:48:59.302Z,80.27
2018-04-25T03:51:26.687Z,80.24
2018-04-25T03:53:54.083Z,79.77
2018-04-25T03:56:21.632Z,79.81
2018-04-25T03:58:49.036Z,80.15
2018-04-25T04:01:16.424Z,79.84
2018-04-25T04:03:43.821Z,79.69
2018-04-25T04:06:12.816Z,79.32
2018-04-25T04:08:40.209Z,79.75
2018-04-25T04:11:07.675Z,78.99
2018-04-25T04:13:35.036Z,78.76
2018-04-25T04:16:02.443Z,79.18
2018-04-25T04:18:29.832Z,79.48
2018-04-25T04:20:57.269Z,78.98
2018-04-25T04:23:25.578Z,78.94
2018-04-25T04:25:52.976Z,78.44
2018-04-25T04:28:20.356Z,78.74
2018-04-25T04:30:47.796Z,78.00
2018-04-25T04:33:15.192Z,77.77
2018-04-25T04:35:43.374Z,77.35
2018-04-25T04:38:10.751Z,77.33
2018-04-25T04:40:38.727Z,77.13
2018-04-25T04:43:06.095Z,77.46
2018-04-25T04:45:33.496Z,77.22
2018-04-25T04:48:00.876Z,75.85
2018-04-25T04:50:28.277Z,74.93
2018-04-25T04:52:55.664Z,74.44
2018-04-25T04:55:23.072Z,75.06
2018-04-25T04:57:50.972Z,74.48
2018-04-25T05:00:18.364Z,75.31
2018-04-25T05:02:45.971Z,74.54
2018-04-25T05:05:13.365Z,74.74
2018-04-25T05:07:40.753Z,74.12
2018-04-25T05:10:08.144Z,74.37
2018-04-25T05:12:35.536Z,73.93
2018-04-25T05:15:02.984Z,73.74
2018-04-25T05:17:30.374Z,73.24
2018-04-25T05:19:58.171Z,73.45
2018-04-25T05:22:26.460Z,72.64
2018-04-25T05:24:53.847Z,71.75
2018-04-25T05:27:21.467Z,72.11
2018-04-25T05:29:49.075Z,71.69
2018-04-25T05:32:16.465Z,72.42
2018-04-25T05:34:43.853Z,71.67
2018-04-25T05:37:11.262Z,71.38
2018-04-25T05:39:38.645Z,71.39
2018-04-25T05:42:06.937Z,70.19
2018-04-25T05:44:34.330Z,70.10
2018-04-25T05:47:01.972Z,69.97
2018-04-25T05:49:29.351Z,69.55
2018-04-25T05:51:56.745Z,69.71
2018-04-25T05:54:24.136Z,69.23
2018-04-25T05:56:51.602Z,66.34
2018-04-25T05:59:18.985Z,61.07
2018-04-25T06:01:47.072Z,55.49
2018-04-25T06:04:14.504Z,54.97
2018-04-25T06:06:41.888Z,53.74
2018-04-25T06:09:09.270Z,53.11
2018-04-25T06:11:36.688Z,52.54
2018-04-25T06:14:04.116Z,50.65
2018-04-25T06:16:31.503Z,50.87
2018-04-25T06:18:58.916Z,50.20
2018-04-25T06:21:26.405Z,51.93
2018-04-25T06:23:53.885Z,54.92
2018-04-25T06:26:21.288Z,55.78
2018-04-25T06:28:48.684Z,57.99
2018-04-25T06:31:16.133Z,59.73
2018-04-25T06:33:43.525Z,59.87
2018-04-25T06:36:10.925Z,62.68
2018-04-25T06:38:38.323Z,59.28
2018-04-25T06:41:05.776Z,57.26
2018-04-25T06:43:33.171Z,59.72
2018-04-25T06:46:00.555Z,60.05
2018-04-25T06:48:28.032Z,61.05
2018-04-25T06:50:55.596Z,62.60
2018-04-25T06:53:22.989Z,64.27
2018-04-25T06:55:50.380Z,63.50
2018-04-25T06:58:18.818Z,63.96
2018-04-25T07:00:46.213Z,61.91
2018-04-25T07:03:13.607Z,60.75
2018-04-25T07:05:41.853Z,62.33
2018-04-25T07:08:09.280Z,60.60
2018-04-25T07:10:36.632Z,61.99
2018-04-25T07:13:04.035Z,60.45
2018-04-25T07:15:31.524Z,60.87
2018-04-25T07:17:58.932Z,61.67
2018-04-25T07:20:26.328Z,60.41
2018-04-25T07:22:53.727Z,61.44
2018-04-25T07:25:21.104Z,59.93
2018-04-25T07:27:49.120Z,58.61
2018-04-25T07:30:16.658Z,58.04
2018-04-25T07:32:44.053Z,58.18
2018-04-25T07:35:11.456Z,58.55
2018-04-25T07:37:38.844Z,58.67
2018-04-25T07:40:06.704Z,59.39
2018-04-25T07:42:34.116Z,57.33
2018-04-25T07:45:01.514Z,58.09
2018-04-25T07:47:28.956Z,58.81
2018-04-25T07:49:56.358Z,57.38
2018-04-25T07:52:23.748Z,58.00
2018-04-25T07:54:51.145Z,56.69
2018-04-25T07:57:18.595Z,56.87
2018-04-25T07:59:46.001Z,58.62
2018-04-25T08:02:13.384Z,56.89
2018-04-25T08:04:40.779Z,56.68
2018-04-25T08:07:08.668Z,57.34
2018-04-25T08:09:36.069Z,56.62
2018-04-25T08:12:03.459Z,57.12
2018-04-25T08:14:42.737Z,56.74
2018-04-25T08:17:21.799Z,56.22
2018-04-25T08:20:00.953Z,56.80
2018-04-25T08:22:28.352Z,56.10
2018-04-25T08:24:55.752Z,56.35
2018-04-25T08:27:23.139Z,55.21
2018-04-25T08:29:50.740Z,56.15
2018-04-25T08:32:18.130Z,55.09
2018-04-25T08:34:45.536Z,55.51
2018-04-25T08:37:12.943Z,55.65
2018-04-25T08:39:40.335Z,55.72
2018-04-25T08:42:07.745Z,53.82
2018-04-25T08:44:35.193Z,53.99
2018-04-25T08:47:02.538Z,54.63
2018-04-25T08:49:29.949Z,53.95
2018-04-25T08:51:57.399Z,53.81
2018-04-25T08:54:24.783Z,55.04
2018-04-25T08:56:53.077Z,55.47
2018-04-25T08:59:20.491Z,54.57
2018-04-25T09:01:47.900Z,55.25
2018-04-25T09:04:15.663Z,55.22
2018-04-25T09:06:43.059Z,53.30
2018-04-25T09:09:10.444Z,53.15
2018-04-25T09:11:37.845Z,53.52
2018-04-25T09:14:05.227Z,52.96
2018-04-25T09:16:32.624Z,53.27
2018-04-25T09:19:00.479Z,52.63
2018-04-25T09:21:27.856Z,52.70
2018-04-25T09:23:55.264Z,51.07
2018-04-25T09:26:23.076Z,51.65
2018-04-25T09:28:50.651Z,50.72
2018-04-25T09:31:18.044Z,51.76
2018-04-25T09:33:45.444Z,49.76
2018-04-25T09:36:12.968Z,48.98
2018-04-25T09:38:40.608Z,49.48
2018-04-25T09:41:08.005Z,47.52
2018-04-25T09:43:35.392Z,49.47
2018-04-25T09:46:03.319Z,49.48
2018-04-25T09:48:30.628Z,46.75
2018-04-25T09:50:58.030Z,48.38
2018-04-25T09:53:25.426Z,50.72
2018-04-25T09:55:53.403Z,51.23
2018-04-25T09:58:20.803Z,50.68
2018-04-25T10:00:53.833Z,52.18
2018-04-25T10:03:23.012Z,51.75
2018-04-25T10:05:50.407Z,52.77
2018-04-25T10:08:18.335Z,52.63
2018-04-25T10:10:45.750Z,53.18
2018-04-25T10:13:13.122Z,52.74
2018-04-25T10:15:40.532Z,52.08
2018-04-25T10:18:08.500Z,52.35
2018-04-25T10:20:35.920Z,53.10
2018-04-25T10:23:03.324Z,51.24
2018-04-25T10:25:30.765Z,52.42
2018-04-25T10:27:58.328Z,52.32
2018-04-25T10:30:25.714Z,51.53
2018-04-25T10:32:53.104Z,53.29
2018-04-25T10:35:20.502Z,51.30
2018-04-25T10:37:48.735Z,50.93
2018-04-25T10:40:16.108Z,51.25
2018-04-25T10:42:43.513Z,49.48
2018-04-25T10:45:10.895Z,49.19
2018-04-25T10:47:38.300Z,50.12
2018-04-25T10:50:05.683Z,48.94
2018-04-25T10:52:33.084Z,48.15
2018-04-25T10:55:00.560Z,48.75
2018-04-25T10:57:27.958Z,49.34
2018-04-25T10:59:55.352Z,49.42
2018-04-25T11:02:24.568Z,46.44
2018-04-25T11:04:51.972Z,46.56
2018-04-25T11:07:19.387Z,47.38
2018-04-25T11:09:46.907Z,47.26
2018-04-25T11:12:14.929Z,46.90
2018-04-25T11:14:42.320Z,46.16
2018-04-25T11:17:09.891Z,45.84
2018-04-25T11:19:37.278Z,44.42
2018-04-25T11:22:04.668Z,44.84
2018-04-25T11:24:32.283Z,45.62
2018-04-25T11:26:59.671Z,45.09
2018-04-25T11:29:27.289Z,45.45
2018-04-25T11:31:55.032Z,45.88
2018-04-25T11:34:22.440Z,44.72
2018-04-25T11:36:49.836Z,43.64
2018-04-25T11:39:17.236Z,44.36
2018-04-25T11:41:44.633Z,44.23
2018-04-25T11:44:12.038Z,44.36
2018-04-25T11:46:39.432Z,44.09
2018-04-25T11:49:06.841Z,45.34
2018-04-25T11:51:35.128Z,44.09
2018-04-25T11:54:02.517Z,42.93
2018-04-25T11:56:29.904Z,41.63
2018-04-25T11:58:57.421Z,42.59
2018-04-25T12:01:24.908Z,41.53
2018-04-25T12:03:52.299Z,41.61
2018-04-25T12:06:19.688Z,40.48
2018-04-25T12:08:47.269Z,41.52
2018-04-25T12:11:14.681Z,42.25
2018-04-25T12:13:42.073Z,41.91
2018-04-25T12:16:09.454Z,40.30
2018-04-25T12:18:37.065Z,41.99
2018-04-25T12:21:04.440Z,43.23
2018-04-25T12:23:32.135Z,43.17
2018-04-25T12:25:59.852Z,43.61
2018-04-25T12:28:28.133Z,44.89
2018-04-25T12:30:55.519Z,44.87
2018-04-25T12:33:22.935Z,45.58
2018-04-25T12:35:50.804Z,45.71
2018-04-25T12:38:18.125Z,46.33
2018-04-25T12:40:45.515Z,46.54
2018-04-25T12:43:12.936Z,46.03
2018-04-25T12:45:40.327Z,47.06
2018-04-25T12:48:07.712Z,47.23
2018-04-25T12:50:35.155Z,48.45
2018-04-25T12:53:02.617Z,48.38
2018-04-25T12:55:30.393Z,48.16
2018-04-25T12:57:58.677Z,49.20
2018-04-25T13:00:26.102Z,49.81
2018-04-25T13:02:53.487Z,49.12
2018-04-25T13:05:20.880Z,48.55
2018-04-25T13:07:48.302Z,49.03
2018-04-25T13:10:15.680Z,47.57
2018-04-25T13:12:44.080Z,48.03
2018-04-25T13:15:11.484Z,48.76
2018-04-25T13:17:38.945Z,49.29
2018-04-25T13:20:06.320Z,49.37
2018-04-25T13:22:33.712Z,49.98
2018-04-25T13:25:01.730Z,49.08
2018-04-25T13:27:29.116Z,48.20
2018-04-25T13:29:56.527Z,48.41
2018-04-25T13:32:23.911Z,50.33
2018-04-25T13:34:51.409Z,49.51
2018-04-25T13:37:18.803Z,48.94
2018-04-25T13:39:46.183Z,48.97
2018-04-25T13:42:13.586Z,48.16
2018-04-25T13:44:41.931Z,47.86
2018-04-25T13:47:09.322Z,47.65
2018-04-25T13:49:36.897Z,47.79
2018-04-25T13:52:05.088Z,46.83
2018-04-25T13:54:32.471Z,47.49
2018-04-25T13:56:59.874Z,47.31
2018-04-25T13:59:27.315Z,46.85
2018-04-25T14:01:54.711Z,47.18
2018-04-25T14:04:22.100Z,47.22
2018-04-25T14:06:49.518Z,47.10
2018-04-25T14:09:17.483Z,47.13
2018-04-25T14:11:44.868Z,47.03
2018-04-25T14:14:12.263Z,46.54
2018-04-25T14:16:39.650Z,47.33
2018-04-25T14:19:07.111Z,47.89
2018-04-25T14:21:35.390Z,47.10
2018-04-25T14:24:03.279Z,47.33
2018-04-25T14:26:30.665Z,47.82
2018-04-25T14:28:58.051Z,48.67
2018-04-25T14:31:25.448Z,47.48
2018-04-25T14:33:53.776Z,47.70
2018-04-25T14:36:21.172Z,47.28
2018-04-25T14:38:48.560Z,47.41
2018-04-25T14:41:17.460Z,46.45
2018-04-25T14:43:44.868Z,46.23
2018-04-25T14:46:12.246Z,46.06
2018-04-25T14:48:39.652Z,45.23
2018-04-25T14:51:07.038Z,47.51
2018-04-25T14:53:35.431Z,49.10
2018-04-25T14:56:02.815Z,49.59
2018-04-25T14:58:30.222Z,50.08
2018-04-25T15:00:57.635Z,50.79
2018-04-25T15:03:25.065Z,51.25
2018-04-25T15:05:53.335Z,51.64
2018-04-25T15:08:20.751Z,51.68
2018-04-25T15:10:48.128Z,52.49
2018-04-25T15:13:15.664Z,52.79
2018-04-25T15:15:43.044Z,52.29
2018-04-25T15:18:10.432Z,52.42
2018-04-25T15:20:37.807Z,51.79
2018-04-25T15:23:05.222Z,50.84
2018-04-25T15:25:32.658Z,50.91
2018-04-25T15:27:59.991Z,50.60
2018-04-25T15:30:27.485Z,49.98
2018-04-25T15:32:54.935Z,49.86
2018-04-25T15:35:22.345Z,50.63
2018-04-25T15:37:49.859Z,50.74
2018-04-25T15:40:17.252Z,50.03
2018-04-25T15:42:44.647Z,51.48
2018-04-25T15:45:12.023Z,51.36
2018-04-25T15:47:39.407Z,51.88
2018-04-25T15:50:06.796Z,52.71
2018-04-25T15:52:34.191Z,53.71
2018-04-25T15:55:01.576Z,53.60
2018-04-25T15:57:28.959Z,54.21
2018-04-25T15:59:56.365Z,54.92
2018-04-25T16:02:24.083Z,53.33
2018-04-25T16:04:51.467Z,53.66
2018-04-25T16:07:19.320Z,54.13
2018-04-25T16:09:46.708Z,54.42
2018-04-25T16:12:14.093Z,54.54
2018-04-25T16:14:41.496Z,53.13
2018-04-25T16:17:08.940Z,52.96
2018-04-25T16:19:37.271Z,53.78
2018-04-25T16:22:04.659Z,51.96
2018-04-25T16:24:32.047Z,52.64
2018-04-25T16:26:59.435Z,54.21
2018-04-25T16:29:27.155Z,53.77
2018-04-25T16:31:54.854Z,53.13
2018-04-25T16:34:23.360Z,54.05
2018-04-25T16:36:50.747Z,54.71
2018-04-25T16:39:18.332Z,54.28
2018-04-25T16:41:45.721Z,55.63
2018-04-25T16:44:13.116Z,54.73
2018-04-25T16:46:41.777Z,54.48
2018-04-25T16:49:09.176Z,55.04
2018-04-25T16:51:36.565Z,55.10
2018-04-25T16:54:03.961Z,55.13
2018-04-25T16:56:31.344Z,55.02
2018-04-25T16:58:59.093Z,55.50
2018-04-25T17:01:26.929Z,55.18
2018-04-25T17:03:54.572Z,55.79
2018-04-25T17:06:21.941Z,55.97
2018-04-25T17:08:49.317Z,55.61
2018-04-25T17:11:17.049Z,55.05
2018-04-25T17:13:44.777Z,54.46
2018-04-25T17:16:12.178Z,54.55
2018-04-25T17:18:39.861Z,55.72
2018-04-25T17:21:07.277Z,56.54
2018-04-25T17:23:34.661Z,56.40
2018-04-25T17:26:02.058Z,57.74
2018-04-25T17:28:29.755Z,56.14
2018-04-25T17:30:57.131Z,56.90
2018-04-25T17:33:26.033Z,57.09
2018-04-25T17:35:53.417Z,57.00
2018-04-25T17:38:20.792Z,57.46
2018-04-25T17:40:48.903Z,57.89
2018-04-25T17:43:16.356Z,58.18
2018-04-25T17:45:43.760Z,59.89
2018-04-25T17:48:11.148Z,58.99
2018-04-25T17:50:38.974Z,59.31
2018-04-25T17:53:06.350Z,59.97
2018-04-25T17:55:33.750Z,59.91
2018-04-25T17:58:01.210Z,60.05
2018-04-25T18:00:28.704Z,59.99
2018-04-25T18:02:56.097Z,60.57
2018-04-25T18:05:23.519Z,61.49
2018-04-25T18:07:50.906Z,61.73
2018-04-25T18:10:18.308Z,62.26
2018-04-25T18:12:45.695Z,62.07
2018-04-25T18:15:13.104Z,61.56
2018-04-25T18:17:40.493Z,61.29
2018-04-25T18:20:08.503Z,61.87
2018-04-25T18:22:35.888Z,61.69
2018-04-25T18:25:03.280Z,61.66
2018-04-25T18:27:31.755Z,61.79
2018-04-25T18:29:59.137Z,62.14
2018-04-25T18:32:26.544Z,61.63
2018-04-25T18:34:53.911Z,62.10
2018-04-25T18:37:21.889Z,62.81
2018-04-25T18:39:49.228Z,62.70
2018-04-25T18:42:16.628Z,62.68
2018-04-25T18:44:44.022Z,62.88
2018-04-25T18:47:11.419Z,63.34
2018-04-25T18:49:38.807Z,63.14
2018-04-25T18:52:06.892Z,62.93
2018-04-25T18:54:34.277Z,63.23
2018-04-25T18:57:01.664Z,63.63
2018-04-25T18:59:29.042Z,64.12
2018-04-25T19:01:56.433Z,64.10
2018-04-25T19:04:23.821Z,63.91
2018-04-25T19:06:51.207Z,64.55
2018-04-25T19:09:18.829Z,65.46
2018-04-25T19:11:46.247Z,65.07
2018-04-25T19:14:13.631Z,65.35
2018-04-25T19:16:41.038Z,64.72
2018-04-25T19:19:09.061Z,64.28
2018-04-25T19:21:36.517Z,64.44
2018-04-25T19:24:03.904Z,63.66
2018-04-25T19:26:32.407Z,63.81
2018-04-25T19:28:59.811Z,63.92
2018-04-25T19:31:27.193Z,63.94
2018-04-25T19:33:55.014Z,63.64
2018-04-25T19:36:22.592Z,64.71
2018-04-25T19:38:50.012Z,64.12
2018-04-25T19:41:17.414Z,64.49
2018-04-25T19:43:44.822Z,64.77
2018-04-25T19:46:12.255Z,64.76
2018-04-25T19:48:39.680Z,65.22
2018-04-25T19:51:07.378Z,65.15
2018-04-25T19:53:34.845Z,65.50
2018-04-25T19:56:02.204Z,65.26
2018-04-25T19:58:30.475Z,64.97
2018-04-25T20:00:57.912Z,65.32
2018-04-25T20:03:25.304Z,65.40
2018-04-25T20:05:52.701Z,65.68
2018-04-25T20:08:20.138Z,65.82
2018-04-25T20:10:47.644Z,66.11
2018-04-25T20:13:15.901Z,66.92
2018-04-25T20:15:43.426Z,66.85
2018-04-25T20:18:10.821Z,67.02
2018-04-25T20:20:38.210Z,67.17
2018-04-25T20:23:05.615Z,67.40
2018-04-25T20:25:33.114Z,67.25
2018-04-25T20:28:00.508Z,67.09
2018-04-25T20:30:27.892Z,66.93
2018-04-25T20:32:55.384Z,66.65
2018-04-25T20:35:22.788Z,66.96
2018-04-25T20:37:50.176Z,66.92
2018-04-25T20:40:17.752Z,66.49
2018-04-25T20:42:45.275Z,67.18
2018-04-25T20:45:12.667Z,67.32
2018-04-25T20:47:40.471Z,67.33
2018-04-25T20:50:07.873Z,67.61
2018-04-25T20:52:35.348Z,67.59
2018-04-25T20:55:02.757Z,67.41
2018-04-25T20:57:30.142Z,67.50
2018-04-25T20:59:57.842Z,67.30
2018-04-25T21:02:25.257Z,67.21
2018-04-25T21:04:52.623Z,67.70
2018-04-25T21:07:20.084Z,67.12
2018-04-25T21:09:48.544Z,67.16
2018-04-25T21:12:15.938Z,67.36
2018-04-25T21:14:43.338Z,67.57
2018-04-25T21:17:10.749Z,68.12
2018-04-25T21:19:38.141Z,68.00
2018-04-25T21:22:06.292Z,68.07
2018-04-25T21:24:34.529Z,68.38
2018-04-25T21:27:01.909Z,68.83
2018-04-25T21:29:29.308Z,68.62
2018-04-25T21:31:56.771Z,68.63
2018-04-25T21:34:24.471Z,69.22
2018-04-25T21:36:51.856Z,69.21
2018-04-25T21:39:19.650Z,71.93
2018-04-25T21:41:47.032Z,74.07
2018-04-25T21:44:14.412Z,76.32
2018-04-25T21:46:41.817Z,77.65
2018-04-25T21:49:09.850Z,78.79
2018-04-25T21:51:37.252Z,79.55
2018-04-25T21:54:04.644Z,81.01
2018-04-25T21:56:32.137Z,81.93
2018-04-25T21:58:59.761Z,82.75
2018-04-25T22:02:37.290Z,84.65
2018-04-25T22:05:04.705Z,84.44
2018-04-25T22:07:32.239Z,84.03
2018-04-25T22:09:59.625Z,84.41
2018-04-25T22:12:27.027Z,85.58
2018-04-25T22:14:54.555Z,86.45
2018-04-25T22:17:22.017Z,86.77
2018-04-25T22:19:50.222Z,87.03
2018-04-25T22:22:17.633Z,87.79
2018-04-25T22:24:45.290Z,87.92
2018-04-25T22:27:12.679Z,87.75
2018-04-25T22:29:40.069Z,87.60
2018-04-25T22:32:07.455Z,88.20
2018-04-25T22:34:34.907Z,88.61
2018-04-25T22:37:02.291Z,87.54
2018-04-25T22:39:30.045Z,87.92
2018-04-25T22:41:57.441Z,87.50
2018-04-25T22:44:24.823Z,87.04
2018-04-25T22:46:52.224Z,86.18
2018-04-25T22:49:19.604Z,86.50
2018-04-25T22:51:47.171Z,86.86
2018-04-25T22:54:14.565Z,86.90
2018-04-25T22:56:41.956Z,87.35
2018-04-25T22:59:09.377Z,87.56
2018-04-25T23:01:36.863Z,86.72
2018-04-25T23:04:04.778Z,86.89
2018-04-25T23:06:32.174Z,86.76
2018-04-25T23:08:59.549Z,86.55
2018-04-25T23:11:26.940Z,86.60
2018-04-25T23:13:54.332Z,85.59
2018-04-25T23:16:21.975Z,86.44
2018-04-25T23:18:49.383Z,86.13
2018-04-25T23:21:16.769Z,86.71
2018-04-25T23:23:44.168Z,87.00
2018-04-25T23:26:11.570Z,86.81
2018-04-25T23:28:38.958Z,87.26
2018-04-25T23:31:06.343Z,87.03
2018-04-25T23:33:33.730Z,87.10
2018-04-25T23:36:01.258Z,86.28
2018-04-25T23:38:28.658Z,87.20
2018-04-25T23:40:56.047Z,87.53
2018-04-25T23:43:23.436Z,88.01
2018-04-25T23:45:51.728Z,87.40
2018-04-25T23:48:19.133Z,85.83
2018-04-25T23:50:46.517Z,84.66
2018-04-25T23:53:14.027Z,84.63
2018-04-25T23:55:41.407Z,85.22
2018-04-25T23:58:08.813Z,84.00
